createdAt,value
2017-06-24T00:00:19.819Z,0
2017-06-24T00:03:46.709Z,0
2017-06-24T00:04:27.600Z,0
2017-06-24T00:05:08.485Z,0
2017-06-24T00:05:49.375Z,0
2017-06-24T00:06:30.281Z,0
2017-06-24T00:07:11.187Z,0
2017-06-24T00:07:52.087Z,0
2017-06-24T00:08:32.979Z,0
2017-06-24T00:09:13.870Z,0
2017-06-24T00:09:54.761Z,0
2017-06-24T00:10:35.653Z,0
2017-06-24T00:11:16.538Z,0
2017-06-24T00:11:57.440Z,0
2017-06-24T00:12:38.358Z,0
2017-06-24T00:14:47.357Z,0
2017-06-24T00:15:28.236Z,0
2017-06-24T00:16:09.123Z,0
2017-06-24T00:16:50.027Z,0
2017-06-24T00:17:30.907Z,0
2017-06-24T00:18:11.791Z,0
2017-06-24T00:18:52.705Z,0
2017-06-24T00:19:33.592Z,0
2017-06-24T00:20:14.480Z,0
2017-06-24T00:20:55.375Z,0
2017-06-24T00:21:36.263Z,0
2017-06-24T00:22:17.126Z,0
2017-06-24T00:22:58.033Z,0
2017-06-24T00:23:38.915Z,0
2017-06-24T00:24:19.820Z,0
2017-06-24T00:26:34.416Z,0
2017-06-24T00:27:15.294Z,0
2017-06-24T00:27:56.183Z,0
2017-06-24T00:28:37.079Z,0
2017-06-24T00:29:17.957Z,0
2017-06-24T00:31:32.696Z,0
2017-06-24T00:32:13.598Z,0
2017-06-24T00:32:54.472Z,0
2017-06-24T00:33:36.235Z,0
2017-06-24T00:34:17.133Z,0
2017-06-24T00:34:58.021Z,0
2017-06-24T00:35:38.936Z,0
2017-06-24T00:36:19.821Z,0
2017-06-24T00:37:00.709Z,0
2017-06-24T00:37:41.591Z,0
2017-06-24T00:38:22.503Z,0
2017-06-24T00:39:03.383Z,0
2017-06-24T00:41:39.894Z,0
2017-06-24T00:42:20.778Z,0
2017-06-24T00:43:03.479Z,0
2017-06-24T00:43:44.363Z,0
2017-06-24T00:44:25.243Z,0
2017-06-24T00:48:18.302Z,0
2017-06-24T00:48:59.175Z,0
2017-06-24T00:49:40.056Z,0
2017-06-24T00:50:20.956Z,0
2017-06-24T00:51:01.824Z,0
2017-06-24T00:51:42.701Z,0
2017-06-24T00:52:23.583Z,0
2017-06-24T00:54:40.572Z,0
2017-06-24T00:55:21.439Z,0
2017-06-24T00:56:02.336Z,0
2017-06-24T00:56:43.234Z,0
2017-06-24T00:57:24.095Z,0
2017-06-24T00:58:04.987Z,0
2017-06-24T01:01:38.276Z,0
2017-06-24T01:02:19.171Z,0
2017-06-24T01:03:00.050Z,0
2017-06-24T01:03:40.940Z,0
2017-06-24T01:04:21.809Z,0
2017-06-24T01:06:38.552Z,0
2017-06-24T01:07:19.447Z,0
2017-06-24T01:09:33.272Z,0
2017-06-24T01:10:14.136Z,0
2017-06-24T01:10:55.040Z,0
2017-06-24T01:11:35.938Z,0
2017-06-24T01:12:16.818Z,0
2017-06-24T01:14:31.607Z,0
2017-06-24T01:15:12.496Z,0
2017-06-24T01:15:53.386Z,0
2017-06-24T01:16:34.264Z,0
2017-06-24T01:17:15.151Z,0
2017-06-24T01:17:56.035Z,0
2017-06-24T01:18:36.925Z,0
2017-06-24T01:19:17.807Z,0
2017-06-24T01:23:07.380Z,0
2017-06-24T01:23:48.299Z,0
2017-06-24T01:24:29.177Z,0
2017-06-24T01:25:10.060Z,0
2017-06-24T01:25:50.952Z,0
2017-06-24T01:26:31.866Z,0
2017-06-24T01:27:12.742Z,0
2017-06-24T01:27:53.646Z,0
2017-06-24T01:28:35.290Z,0
2017-06-24T01:29:16.211Z,0
2017-06-24T01:29:57.096Z,0
2017-06-24T01:30:37.986Z,0
2017-06-24T01:31:18.899Z,0
2017-06-24T01:31:59.770Z,0
2017-06-24T01:32:40.662Z,0
2017-06-24T01:33:23.212Z,0
2017-06-24T01:36:39.325Z,0
2017-06-24T01:37:20.212Z,0
2017-06-24T01:43:13.153Z,0
2017-06-24T01:45:30.990Z,0
2017-06-24T01:46:11.901Z,0
2017-06-24T01:46:52.786Z,0
2017-06-24T01:47:33.665Z,0
2017-06-24T01:48:14.578Z,0
2017-06-24T01:48:55.465Z,0
2017-06-24T01:49:36.352Z,0
2017-06-24T01:50:17.265Z,0
2017-06-24T01:52:30.996Z,0
2017-06-24T01:53:11.886Z,0
2017-06-24T01:53:52.876Z,0
2017-06-24T01:54:33.774Z,0
2017-06-24T01:55:14.667Z,0
2017-06-24T01:55:55.539Z,0
2017-06-24T01:56:36.421Z,0
2017-06-24T01:57:17.309Z,0
2017-06-24T02:03:17.074Z,0
2017-06-24T02:06:34.460Z,0
2017-06-24T02:07:15.345Z,0
2017-06-24T02:10:56.737Z,0
2017-06-24T02:13:00.924Z,0
2017-06-24T02:15:32.121Z,0
2017-06-24T02:16:13.035Z,0
2017-06-24T02:16:53.922Z,0
2017-06-24T02:17:34.877Z,0
2017-06-24T02:18:15.754Z,0
2017-06-24T02:18:56.644Z,0
2017-06-24T02:19:37.586Z,0
2017-06-24T02:20:18.534Z,0
2017-06-24T02:24:53.544Z,0
2017-06-24T02:28:46.696Z,0
2017-06-24T02:29:28.348Z,0
2017-06-24T02:30:09.250Z,0
2017-06-24T02:30:50.137Z,0
2017-06-24T02:31:31.040Z,0
2017-06-24T02:32:11.925Z,0
2017-06-24T02:32:54.659Z,0
2017-06-24T02:33:35.550Z,0
2017-06-24T02:34:16.448Z,0
2017-06-24T02:34:57.307Z,0
2017-06-24T02:35:38.274Z,0
2017-06-24T02:37:54.798Z,0
2017-06-24T02:38:35.639Z,0
2017-06-24T02:39:16.599Z,0
2017-06-24T02:41:32.838Z,0
2017-06-24T02:42:13.738Z,0
2017-06-24T02:42:54.690Z,0
2017-06-24T02:43:35.712Z,0
2017-06-24T02:44:18.282Z,0
2017-06-24T02:46:34.542Z,0
2017-06-24T02:47:15.407Z,0
2017-06-24T02:47:56.281Z,0
2017-06-24T02:48:37.165Z,0
2017-06-24T02:49:20.063Z,0
2017-06-24T02:50:00.951Z,0
2017-06-24T02:57:31.468Z,0
2017-06-24T03:00:28.686Z,0
2017-06-24T03:01:09.571Z,0
2017-06-24T03:01:50.449Z,0
2017-06-24T03:02:31.335Z,0
2017-06-24T03:03:12.234Z,0
2017-06-24T03:03:53.123Z,0
2017-06-24T03:04:34.110Z,0
2017-06-24T03:05:14.956Z,0
2017-06-24T03:05:55.839Z,0
2017-06-24T03:06:37.664Z,5
2017-06-24T03:07:18.556Z,5
2017-06-24T03:07:59.437Z,5
2017-06-24T03:08:40.322Z,5
2017-06-24T03:09:21.206Z,0
2017-06-24T03:10:02.138Z,0
2017-06-24T03:12:31.244Z,0
2017-06-24T03:13:12.191Z,0
2017-06-24T03:13:53.087Z,0
2017-06-24T03:14:34.005Z,0
2017-06-24T03:15:14.877Z,0
2017-06-24T03:15:55.766Z,0
2017-06-24T03:16:36.654Z,0
2017-06-24T03:17:17.618Z,0
2017-06-24T03:19:31.372Z,5
2017-06-24T03:21:28.853Z,5
2017-06-24T03:22:09.731Z,0
2017-06-24T03:22:50.614Z,0
2017-06-24T03:23:31.505Z,0
2017-06-24T03:24:12.387Z,0
2017-06-24T03:24:53.276Z,5
2017-06-24T03:25:35.680Z,5
2017-06-24T03:26:16.567Z,5
2017-06-24T03:26:57.454Z,5
2017-06-24T03:27:38.316Z,5
2017-06-24T03:28:19.203Z,5
2017-06-24T03:33:45.032Z,10
2017-06-24T03:34:26.055Z,10
2017-06-24T03:35:06.926Z,10
2017-06-24T03:35:47.816Z,10
2017-06-24T03:36:28.720Z,10
2017-06-24T03:37:09.612Z,10
2017-06-24T03:37:50.502Z,10
2017-06-24T03:38:31.407Z,10
2017-06-24T03:39:12.335Z,10
2017-06-24T03:39:53.224Z,10
2017-06-24T03:40:34.095Z,10
2017-06-24T03:41:15.106Z,10
2017-06-24T03:43:31.493Z,15
2017-06-24T03:47:26.171Z,20
2017-06-24T03:48:07.094Z,20
2017-06-24T03:50:06.196Z,25
2017-06-24T03:50:47.087Z,25
2017-06-24T03:51:27.988Z,30
2017-06-24T03:52:08.867Z,30
2017-06-24T03:52:49.878Z,30
2017-06-24T03:53:30.765Z,30
2017-06-24T03:54:11.674Z,30
2017-06-24T03:54:52.594Z,30
2017-06-24T03:55:33.488Z,30
2017-06-24T03:59:25.545Z,30
2017-06-24T04:00:06.444Z,35
2017-06-24T04:00:47.323Z,35
2017-06-24T04:01:28.238Z,35
2017-06-24T04:02:09.143Z,35
2017-06-24T04:02:50.031Z,30
2017-06-24T04:03:30.914Z,30
2017-06-24T04:04:11.800Z,30
2017-06-24T04:04:52.681Z,30
2017-06-24T04:05:33.561Z,30
2017-06-24T04:06:14.476Z,30
2017-06-24T04:06:55.359Z,30
2017-06-24T04:07:36.236Z,30
2017-06-24T04:08:17.192Z,30
2017-06-24T04:10:30.932Z,35
2017-06-24T04:11:11.826Z,35
2017-06-24T04:11:52.711Z,35
2017-06-24T04:12:33.583Z,35
2017-06-24T04:13:14.465Z,35
2017-06-24T04:15:34.300Z,30
2017-06-24T04:16:15.178Z,30
2017-06-24T04:16:56.071Z,35
2017-06-24T04:17:36.939Z,35
2017-06-24T04:18:20.588Z,35
2017-06-24T04:19:03.061Z,35
2017-06-24T04:19:43.975Z,40
2017-06-24T04:23:12.193Z,40
2017-06-24T04:23:53.837Z,40
2017-06-24T04:24:34.691Z,40
2017-06-24T04:25:15.577Z,45
2017-06-24T04:25:56.522Z,45
2017-06-24T04:26:37.416Z,50
2017-06-24T04:27:18.302Z,50
2017-06-24T04:27:59.177Z,55
2017-06-24T04:28:40.115Z,60
2017-06-24T04:29:21.029Z,60
2017-06-24T04:30:01.909Z,60
2017-06-24T04:30:45.576Z,60
2017-06-24T04:31:26.464Z,55
2017-06-24T04:32:08.863Z,55
2017-06-24T04:32:49.748Z,55
2017-06-24T04:33:30.628Z,55
2017-06-24T04:34:11.532Z,60
2017-06-24T04:34:52.426Z,60
2017-06-24T04:35:33.308Z,60
2017-06-24T04:36:14.190Z,60
2017-06-24T04:36:55.071Z,55
2017-06-24T04:37:36.014Z,55
2017-06-24T04:38:16.855Z,50
2017-06-24T04:38:57.745Z,50
2017-06-24T04:39:38.735Z,55
2017-06-24T04:40:19.815Z,55
2017-06-24T04:42:33.624Z,60
2017-06-24T04:43:14.564Z,55
2017-06-24T04:45:29.156Z,55
2017-06-24T04:46:10.076Z,55
2017-06-24T04:46:50.958Z,50
2017-06-24T04:47:31.849Z,50
2017-06-24T04:48:12.734Z,50
2017-06-24T04:48:53.636Z,50
2017-06-24T04:49:34.530Z,50
2017-06-24T04:50:15.431Z,55
2017-06-24T04:50:56.313Z,50
2017-06-24T04:51:37.202Z,50
2017-06-24T04:52:18.091Z,45
2017-06-24T04:52:58.973Z,45
2017-06-24T04:53:39.845Z,45
2017-06-24T04:54:20.744Z,45
2017-06-24T04:55:01.610Z,45
2017-06-24T04:55:42.549Z,50
2017-06-24T04:56:23.429Z,50
2017-06-24T04:57:04.312Z,60
2017-06-24T04:57:45.204Z,65
2017-06-24T04:58:26.103Z,75
2017-06-24T04:59:06.987Z,80
2017-06-24T04:59:47.866Z,85
2017-06-24T05:00:28.762Z,95
2017-06-24T05:01:09.647Z,95
2017-06-24T05:01:50.531Z,95
2017-06-24T05:02:31.417Z,95
2017-06-24T05:03:12.321Z,95
2017-06-24T05:03:53.204Z,90
2017-06-24T05:04:34.100Z,90
2017-06-24T05:05:14.986Z,90
2017-06-24T05:05:55.861Z,90
2017-06-24T05:06:36.744Z,85
2017-06-24T05:07:17.656Z,85
2017-06-24T05:07:58.559Z,85
2017-06-24T05:08:39.463Z,85
2017-06-24T05:09:20.371Z,90
2017-06-24T05:10:01.260Z,85
2017-06-24T05:10:42.153Z,85
2017-06-24T05:11:23.042Z,85
2017-06-24T05:12:03.931Z,85
2017-06-24T05:12:44.824Z,85
2017-06-24T05:13:25.705Z,85
2017-06-24T05:14:06.584Z,85
2017-06-24T05:14:47.468Z,85
2017-06-24T05:15:28.393Z,80
2017-06-24T05:16:09.275Z,85
2017-06-24T05:16:50.167Z,85
2017-06-24T05:17:31.048Z,85
2017-06-24T05:18:11.930Z,85
2017-06-24T05:18:52.843Z,85
2017-06-24T05:19:33.733Z,85
2017-06-24T05:20:14.617Z,95
2017-06-24T05:20:55.512Z,100
2017-06-24T05:21:36.397Z,100
2017-06-24T05:22:17.287Z,100
2017-06-24T05:22:58.170Z,100
2017-06-24T05:23:39.066Z,105
2017-06-24T05:24:19.964Z,115
2017-06-24T05:25:00.884Z,120
2017-06-24T05:25:41.744Z,125
2017-06-24T05:26:22.634Z,120
2017-06-24T05:27:03.531Z,105
2017-06-24T05:27:44.420Z,90
2017-06-24T05:28:25.313Z,90
2017-06-24T05:29:06.210Z,95
2017-06-24T05:29:47.105Z,100
2017-06-24T05:30:27.995Z,100
2017-06-24T05:31:08.890Z,100
2017-06-24T05:31:49.776Z,95
2017-06-24T05:32:30.656Z,95
2017-06-24T05:33:11.588Z,95
2017-06-24T05:33:52.456Z,95
2017-06-24T05:34:33.350Z,110
2017-06-24T05:35:14.243Z,115
2017-06-24T05:35:55.132Z,110
2017-06-24T05:36:36.032Z,100
2017-06-24T05:37:16.949Z,90
2017-06-24T05:37:57.831Z,85
2017-06-24T05:38:38.718Z,85
2017-06-24T05:39:19.604Z,85
2017-06-24T05:40:00.500Z,85
2017-06-24T05:40:41.387Z,85
2017-06-24T05:41:22.311Z,80
2017-06-24T05:42:03.176Z,75
2017-06-24T05:42:44.055Z,70
2017-06-24T05:43:24.949Z,70
2017-06-24T05:44:05.831Z,70
2017-06-24T05:44:46.719Z,75
2017-06-24T05:45:27.613Z,75
2017-06-24T05:46:08.492Z,80
2017-06-24T05:46:49.420Z,85
2017-06-24T05:47:30.275Z,85
2017-06-24T05:48:11.171Z,85
2017-06-24T05:48:52.045Z,85
2017-06-24T05:49:32.917Z,85
2017-06-24T05:50:13.810Z,85
2017-06-24T05:50:54.697Z,85
2017-06-24T05:51:35.589Z,85
2017-06-24T05:52:16.512Z,85
2017-06-24T05:52:57.406Z,90
2017-06-24T05:53:38.325Z,95
2017-06-24T05:54:19.231Z,100
2017-06-24T05:55:00.112Z,95
2017-06-24T05:55:41.003Z,95
2017-06-24T05:56:21.897Z,95
2017-06-24T05:57:02.801Z,90
2017-06-24T05:57:43.690Z,90
2017-06-24T05:58:24.582Z,85
2017-06-24T05:59:05.518Z,90
2017-06-24T05:59:46.407Z,100
2017-06-24T06:00:27.298Z,115
2017-06-24T06:01:08.207Z,125
2017-06-24T06:01:49.091Z,135
2017-06-24T06:02:29.983Z,150
2017-06-24T06:03:10.870Z,155
2017-06-24T06:03:51.749Z,150
2017-06-24T06:04:32.634Z,140
2017-06-24T06:05:13.596Z,125
2017-06-24T06:07:30.361Z,145
2017-06-24T06:09:49.291Z,165
2017-06-24T06:10:30.248Z,175
2017-06-24T06:11:11.146Z,175
2017-06-24T06:11:52.025Z,180
2017-06-24T06:12:32.944Z,175
2017-06-24T06:13:13.831Z,160
2017-06-24T06:13:54.699Z,145
2017-06-24T06:14:35.579Z,130
2017-06-24T06:15:16.471Z,135
2017-06-24T06:15:57.358Z,155
2017-06-24T06:16:38.245Z,175
2017-06-24T06:17:19.146Z,180
2017-06-24T06:18:00.064Z,185
2017-06-24T06:18:40.954Z,180
2017-06-24T06:19:21.841Z,180
2017-06-24T06:20:02.721Z,180
2017-06-24T06:20:43.612Z,180
2017-06-24T06:21:24.501Z,185
2017-06-24T06:22:05.389Z,185
2017-06-24T06:22:47.962Z,185
2017-06-24T06:23:28.842Z,185
2017-06-24T06:24:09.749Z,190
2017-06-24T06:26:18.748Z,180
2017-06-24T06:26:59.654Z,165
2017-06-24T06:27:40.533Z,155
2017-06-24T06:28:21.417Z,150
2017-06-24T06:29:02.353Z,145
2017-06-24T06:29:43.243Z,145
2017-06-24T06:30:24.159Z,150
2017-06-24T06:31:05.047Z,155
2017-06-24T06:31:45.940Z,165
2017-06-24T06:32:26.829Z,165
2017-06-24T06:33:07.720Z,160
2017-06-24T06:33:48.618Z,150
2017-06-24T06:34:29.510Z,145
2017-06-24T06:35:10.390Z,135
2017-06-24T06:35:51.277Z,130
2017-06-24T06:36:32.165Z,140
2017-06-24T06:37:13.068Z,145
2017-06-24T06:37:53.962Z,145
2017-06-24T06:38:34.858Z,145
2017-06-24T06:39:15.749Z,145
2017-06-24T06:39:56.648Z,145
2017-06-24T06:40:37.534Z,155
2017-06-24T06:41:18.419Z,175
2017-06-24T06:41:59.310Z,185
2017-06-24T06:42:40.236Z,190
2017-06-24T06:43:21.169Z,200
2017-06-24T06:44:02.060Z,200
2017-06-24T06:44:42.953Z,190
2017-06-24T06:45:23.839Z,170
2017-06-24T06:46:05.081Z,145
2017-06-24T06:46:45.993Z,130
2017-06-24T06:47:26.851Z,130
2017-06-24T06:49:25.618Z,150
2017-06-24T06:50:06.554Z,160
2017-06-24T06:52:25.980Z,170
2017-06-24T06:54:35.001Z,185
2017-06-24T06:55:15.917Z,195
2017-06-24T06:55:56.833Z,200
2017-06-24T06:56:37.716Z,215
2017-06-24T06:57:18.600Z,210
2017-06-24T06:57:59.529Z,185
2017-06-24T06:58:40.393Z,170
2017-06-24T06:59:21.256Z,155
2017-06-24T07:00:02.113Z,150
2017-06-24T07:00:42.984Z,150
2017-06-24T07:01:23.872Z,155
2017-06-24T07:02:04.754Z,160
2017-06-24T07:02:45.644Z,160
2017-06-24T07:03:26.514Z,160
2017-06-24T07:04:07.379Z,170
2017-06-24T07:04:48.233Z,190
2017-06-24T07:05:29.140Z,210
2017-06-24T07:06:10.012Z,225
2017-06-24T07:06:50.879Z,220
2017-06-24T07:07:31.755Z,205
2017-06-24T07:09:30.615Z,175
2017-06-24T07:10:11.485Z,180
2017-06-24T07:10:52.398Z,170
2017-06-24T07:11:33.296Z,160
2017-06-24T07:12:14.163Z,160
2017-06-24T07:12:55.043Z,165
2017-06-24T07:13:35.915Z,170
2017-06-24T07:14:16.785Z,175
2017-06-24T07:14:57.659Z,175
2017-06-24T07:15:38.531Z,185
2017-06-24T07:16:19.412Z,185
2017-06-24T07:17:00.283Z,200
2017-06-24T07:17:41.151Z,225
2017-06-24T07:18:22.011Z,240
2017-06-24T07:19:02.868Z,260
2017-06-24T07:19:43.732Z,275
2017-06-24T07:20:24.616Z,265
2017-06-24T07:21:05.505Z,240
2017-06-24T07:21:46.374Z,215
2017-06-24T07:22:27.246Z,205
2017-06-24T07:23:08.131Z,200
2017-06-24T07:23:49.023Z,190
2017-06-24T07:24:29.914Z,180
2017-06-24T07:25:10.833Z,175
2017-06-24T07:25:51.708Z,175
2017-06-24T07:26:32.600Z,185
2017-06-24T07:27:13.472Z,190
2017-06-24T07:27:54.344Z,200
2017-06-24T07:28:35.199Z,215
2017-06-24T07:29:16.078Z,230
2017-06-24T07:29:56.963Z,240
2017-06-24T07:30:37.832Z,250
2017-06-24T07:31:18.726Z,260
2017-06-24T07:31:59.610Z,270
2017-06-24T07:32:40.491Z,260
2017-06-24T07:33:21.376Z,240
2017-06-24T07:34:02.243Z,220
2017-06-24T07:34:43.116Z,195
2017-06-24T07:35:24.023Z,175
2017-06-24T07:36:04.911Z,170
2017-06-24T07:36:45.770Z,160
2017-06-24T07:37:26.630Z,165
2017-06-24T07:38:07.486Z,160
2017-06-24T07:38:48.354Z,145
2017-06-24T07:39:29.230Z,140
2017-06-24T07:40:10.107Z,125
2017-06-24T07:40:50.992Z,115
2017-06-24T07:41:31.877Z,115
2017-06-24T07:42:12.751Z,105
2017-06-24T07:42:53.619Z,100
2017-06-24T07:43:34.493Z,100
2017-06-24T07:44:15.382Z,100
2017-06-24T07:44:56.268Z,95
2017-06-24T07:45:37.175Z,100
2017-06-24T07:46:18.049Z,100
2017-06-24T07:46:58.919Z,105
2017-06-24T07:47:39.800Z,110
2017-06-24T07:49:48.848Z,140
2017-06-24T07:50:29.743Z,165
2017-06-24T07:51:10.621Z,190
2017-06-24T07:51:51.501Z,195
2017-06-24T07:52:32.359Z,200
2017-06-24T07:53:13.269Z,200
2017-06-24T07:53:54.159Z,215
2017-06-24T07:54:35.022Z,245
2017-06-24T07:55:15.894Z,275
2017-06-24T07:55:56.780Z,290
2017-06-24T07:57:50.472Z,255
2017-06-24T07:58:31.344Z,240
2017-06-24T07:59:12.219Z,230
2017-06-24T07:59:53.087Z,210
2017-06-24T08:00:33.973Z,185
2017-06-24T08:01:14.860Z,165
2017-06-24T08:01:55.754Z,150
2017-06-24T08:02:36.624Z,150
2017-06-24T08:03:17.555Z,155
2017-06-24T08:03:58.428Z,160
2017-06-24T08:04:39.295Z,160
2017-06-24T08:05:20.166Z,155
2017-06-24T08:06:01.065Z,155
2017-06-24T08:06:41.946Z,150
2017-06-24T08:07:22.820Z,150
2017-06-24T08:08:03.682Z,155
2017-06-24T08:08:44.560Z,165
2017-06-24T08:09:25.406Z,170
2017-06-24T08:10:06.293Z,165
2017-06-24T08:10:47.176Z,175
2017-06-24T08:11:28.057Z,180
2017-06-24T08:12:08.943Z,185
2017-06-24T08:12:49.813Z,175
2017-06-24T08:13:30.698Z,165
2017-06-24T08:14:11.584Z,165
2017-06-24T08:14:52.457Z,165
2017-06-24T08:15:33.324Z,175
2017-06-24T08:16:14.186Z,175
2017-06-24T08:16:55.044Z,170
2017-06-24T08:17:35.926Z,165
2017-06-24T08:18:16.818Z,160
2017-06-24T08:18:57.717Z,165
2017-06-24T08:19:38.596Z,170
2017-06-24T08:20:19.489Z,170
2017-06-24T08:21:00.386Z,165
2017-06-24T08:21:41.259Z,155
2017-06-24T08:22:22.137Z,150
2017-06-24T08:23:03.013Z,145
2017-06-24T08:23:43.932Z,150
2017-06-24T08:27:12.327Z,145
2017-06-24T08:27:53.232Z,145
2017-06-24T08:28:34.124Z,145
2017-06-24T08:29:14.998Z,150
2017-06-24T08:29:55.914Z,155
2017-06-24T08:30:36.786Z,160
2017-06-24T08:31:17.654Z,165
2017-06-24T08:31:58.523Z,165
2017-06-24T08:32:39.386Z,165
2017-06-24T08:33:20.250Z,165
2017-06-24T08:34:01.096Z,160
2017-06-24T08:34:41.992Z,155
2017-06-24T08:35:22.865Z,150
2017-06-24T08:36:03.754Z,150
2017-06-24T08:36:44.629Z,150
2017-06-24T08:37:25.515Z,150
2017-06-24T08:38:06.394Z,150
2017-06-24T08:38:47.282Z,145
2017-06-24T08:39:28.154Z,140
2017-06-24T08:40:09.007Z,140
2017-06-24T08:40:49.903Z,140
2017-06-24T08:41:30.794Z,145
2017-06-24T08:42:11.669Z,145
2017-06-24T08:42:52.554Z,150
2017-06-24T08:43:33.422Z,145
2017-06-24T08:44:14.326Z,135
2017-06-24T08:44:55.215Z,140
2017-06-24T08:45:36.084Z,135
2017-06-24T08:46:16.947Z,155
2017-06-24T08:46:57.824Z,185
2017-06-24T08:47:38.711Z,215
2017-06-24T08:48:19.583Z,235
2017-06-24T08:49:00.464Z,255
2017-06-24T08:49:41.346Z,265
2017-06-24T08:50:22.212Z,275
2017-06-24T08:51:03.100Z,275
2017-06-24T08:51:43.980Z,265
2017-06-24T08:52:24.905Z,250
2017-06-24T08:53:05.800Z,240
2017-06-24T08:53:46.686Z,245
2017-06-24T08:54:27.555Z,245
2017-06-24T08:55:08.428Z,245
2017-06-24T08:55:49.309Z,245
2017-06-24T08:56:30.206Z,245
2017-06-24T08:57:11.104Z,245
2017-06-24T08:57:51.988Z,255
2017-06-24T08:58:32.867Z,270
2017-06-24T08:59:13.740Z,300
2017-06-24T08:59:54.632Z,315
2017-06-24T09:00:35.499Z,315
2017-06-24T09:01:16.373Z,325
2017-06-24T09:01:57.253Z,340
2017-06-24T09:02:38.135Z,335
2017-06-24T09:03:19.017Z,330
2017-06-24T09:03:59.878Z,335
2017-06-24T09:04:40.750Z,350
2017-06-24T09:05:21.621Z,330
2017-06-24T09:06:02.493Z,280
2017-06-24T09:06:43.369Z,250
2017-06-24T09:07:24.254Z,230
2017-06-24T09:08:05.136Z,225
2017-06-24T09:08:45.992Z,225
2017-06-24T09:09:26.878Z,245
2017-06-24T09:10:07.761Z,260
2017-06-24T09:10:48.639Z,275
2017-06-24T09:11:29.511Z,265
2017-06-24T09:12:10.389Z,260
2017-06-24T09:12:51.290Z,275
2017-06-24T09:13:32.187Z,290
2017-06-24T09:14:13.066Z,310
2017-06-24T09:14:53.943Z,310
2017-06-24T09:15:34.827Z,320
2017-06-24T09:16:15.721Z,350
2017-06-24T09:16:56.597Z,405
2017-06-24T09:17:37.476Z,445
2017-06-24T09:18:18.350Z,485
2017-06-24T09:18:59.232Z,515
2017-06-24T09:19:40.114Z,520
2017-06-24T09:20:21.003Z,475
2017-06-24T09:21:01.889Z,420
2017-06-24T09:21:42.784Z,390
2017-06-24T09:22:23.657Z,380
2017-06-24T09:23:04.546Z,380
2017-06-24T09:23:45.444Z,380
2017-06-24T09:24:26.313Z,370
2017-06-24T09:25:07.183Z,365
2017-06-24T09:25:48.062Z,350
2017-06-24T09:26:28.956Z,320
2017-06-24T09:27:09.835Z,310
2017-06-24T09:27:50.711Z,330
2017-06-24T09:28:31.584Z,335
2017-06-24T09:29:12.478Z,325
2017-06-24T09:29:53.369Z,315
2017-06-24T09:30:34.266Z,305
2017-06-24T09:31:15.153Z,310
2017-06-24T09:31:56.041Z,305
2017-06-24T09:32:36.918Z,290
2017-06-24T09:33:17.796Z,280
2017-06-24T09:34:03.200Z,260
2017-06-24T09:34:44.089Z,260
2017-06-24T09:35:24.971Z,255
2017-06-24T09:36:05.875Z,255
2017-06-24T09:36:46.743Z,245
2017-06-24T09:37:33.798Z,230
2017-06-24T09:38:13.924Z,205
2017-06-24T09:38:54.796Z,210
2017-06-24T09:39:35.679Z,215
2017-06-24T09:40:16.549Z,200
2017-06-24T09:40:57.433Z,185
2017-06-24T09:41:38.300Z,195
2017-06-24T09:42:19.172Z,230
2017-06-24T09:43:00.042Z,260
2017-06-24T09:43:40.942Z,265
2017-06-24T09:44:21.829Z,260
2017-06-24T09:45:02.705Z,220
2017-06-24T09:45:43.601Z,190
2017-06-24T09:46:24.503Z,190
2017-06-24T09:47:05.402Z,225
2017-06-24T09:47:46.300Z,275
2017-06-24T09:48:27.175Z,325
2017-06-24T09:49:08.035Z,370
2017-06-24T09:49:48.903Z,380
2017-06-24T09:50:29.784Z,355
2017-06-24T09:51:10.650Z,345
2017-06-24T09:51:51.537Z,350
2017-06-24T09:52:32.412Z,310
2017-06-24T09:53:13.287Z,295
2017-06-24T09:53:54.175Z,315
2017-06-24T09:54:35.054Z,310
2017-06-24T09:55:15.960Z,280
2017-06-24T09:55:56.854Z,240
2017-06-24T09:56:37.739Z,200
2017-06-24T09:57:18.616Z,190
2017-06-24T09:57:59.509Z,250
2017-06-24T09:58:40.385Z,310
2017-06-24T09:59:21.272Z,365
2017-06-24T10:00:02.153Z,385
2017-06-24T10:00:43.048Z,370
2017-06-24T10:01:23.923Z,360
2017-06-24T10:02:04.778Z,325
2017-06-24T10:02:45.647Z,280
2017-06-24T10:03:26.536Z,260
2017-06-24T10:04:07.422Z,270
2017-06-24T10:04:48.327Z,275
2017-06-24T10:05:29.221Z,275
2017-06-24T10:06:10.117Z,265
2017-06-24T10:06:51.009Z,280
2017-06-24T10:07:31.882Z,290
2017-06-24T10:08:12.762Z,295
2017-06-24T10:08:53.646Z,290
2017-06-24T10:09:34.537Z,270
2017-06-24T10:10:15.454Z,270
2017-06-24T10:10:56.331Z,270
2017-06-24T10:11:37.206Z,270
2017-06-24T10:12:18.079Z,265
2017-06-24T10:12:58.981Z,260
2017-06-24T10:13:39.867Z,250
2017-06-24T10:14:20.763Z,230
2017-06-24T10:15:01.655Z,220
2017-06-24T10:15:42.539Z,225
2017-06-24T10:16:23.431Z,230
2017-06-24T10:17:04.313Z,240
2017-06-24T10:17:45.204Z,245
2017-06-24T10:18:26.098Z,250
2017-06-24T10:19:06.997Z,255
2017-06-24T10:19:47.884Z,260
2017-06-24T10:20:28.761Z,255
2017-06-24T10:21:09.633Z,245
2017-06-24T10:21:50.523Z,235
2017-06-24T10:22:31.411Z,225
2017-06-24T10:23:12.280Z,220
2017-06-24T10:23:53.186Z,215
2017-06-24T10:24:34.080Z,225
2017-06-24T10:25:14.973Z,230
2017-06-24T10:25:55.843Z,230
2017-06-24T10:26:36.752Z,230
2017-06-24T10:27:17.666Z,225
2017-06-24T10:27:58.549Z,220
2017-06-24T10:28:39.437Z,210
2017-06-24T10:29:20.296Z,200
2017-06-24T10:30:01.169Z,195
2017-06-24T10:30:42.043Z,195
2017-06-24T10:31:22.949Z,190
2017-06-24T10:32:03.832Z,185
2017-06-24T10:32:44.702Z,190
2017-06-24T10:33:25.582Z,195
2017-06-24T10:34:06.470Z,195
2017-06-24T10:34:47.355Z,195
2017-06-24T10:35:28.226Z,200
2017-06-24T10:36:09.101Z,210
2017-06-24T10:36:49.997Z,200
2017-06-24T10:37:30.929Z,205
2017-06-24T10:38:11.813Z,215
2017-06-24T10:38:52.697Z,235
2017-06-24T10:39:33.574Z,255
2017-06-24T10:40:14.498Z,265
2017-06-24T10:40:55.378Z,280
2017-06-24T10:41:36.260Z,275
2017-06-24T10:42:17.166Z,265
2017-06-24T10:42:58.050Z,255
2017-06-24T10:45:07.093Z,245
2017-06-24T10:45:47.983Z,250
2017-06-24T10:46:28.889Z,245
2017-06-24T10:47:09.776Z,240
2017-06-24T10:47:50.685Z,225
2017-06-24T10:48:31.566Z,220
2017-06-24T10:49:12.427Z,225
2017-06-24T10:49:53.359Z,225
2017-06-24T10:50:34.262Z,215
2017-06-24T10:51:15.169Z,205
2017-06-24T10:51:56.046Z,200
2017-06-24T10:52:36.917Z,205
2017-06-24T10:53:17.834Z,210
2017-06-24T10:53:58.711Z,215
2017-06-24T10:54:39.631Z,220
2017-06-24T10:55:20.514Z,215
2017-06-24T10:56:01.392Z,205
2017-06-24T10:56:42.283Z,200
2017-06-24T10:58:56.513Z,200
2017-06-24T10:59:37.393Z,215
2017-06-24T11:03:19.682Z,215
2017-06-24T11:04:00.573Z,225
2017-06-24T11:04:41.466Z,230
2017-06-24T11:05:22.376Z,235
2017-06-24T11:06:03.239Z,240
2017-06-24T11:06:44.103Z,245
2017-06-24T11:07:24.989Z,250
2017-06-24T11:08:05.879Z,250
2017-06-24T11:08:46.749Z,245
2017-06-24T11:09:27.613Z,235
2017-06-24T11:10:08.481Z,230
2017-06-24T11:10:49.351Z,235
2017-06-24T11:11:30.223Z,235
2017-06-24T11:12:11.107Z,250
2017-06-24T11:12:52.005Z,270
2017-06-24T11:13:32.870Z,285
2017-06-24T11:14:13.775Z,295
2017-06-24T11:14:54.674Z,310
2017-06-24T11:15:35.537Z,325
2017-06-24T11:16:16.421Z,325
2017-06-24T11:16:57.307Z,310
2017-06-24T11:17:38.203Z,300
2017-06-24T11:18:19.110Z,295
2017-06-24T11:18:59.966Z,290
2017-06-24T11:19:40.883Z,285
2017-06-24T11:22:14.156Z,370
2017-06-24T11:22:55.063Z,360
2017-06-24T11:23:35.955Z,340
2017-06-24T11:24:17.479Z,325
2017-06-24T11:24:58.374Z,290
2017-06-24T11:27:13.119Z,200
2017-06-24T11:27:54.007Z,195
2017-06-24T11:28:34.904Z,190
2017-06-24T11:29:15.795Z,180
2017-06-24T11:29:56.689Z,175
2017-06-24T11:30:37.595Z,175
2017-06-24T11:31:18.492Z,165
2017-06-24T11:31:59.398Z,170
2017-06-24T11:32:40.308Z,195
2017-06-24T11:33:21.201Z,260
2017-06-24T11:34:02.095Z,385
2017-06-24T11:34:42.986Z,470
2017-06-24T11:35:23.877Z,435
2017-06-24T11:36:04.769Z,370
2017-06-24T11:36:45.660Z,305
2017-06-24T11:39:26.429Z,340
2017-06-24T11:41:48.011Z,235
2017-06-24T11:42:28.889Z,195
2017-06-24T11:43:09.773Z,175
2017-06-24T11:43:50.676Z,160
2017-06-24T11:47:37.334Z,105